Time;durP1;ratioP1;P1;durP2;ratioP2;P2;SDS_P1;SDS_P2;PMS_P1;PMS_P2;Temp;Humidity;BMP_temperature;BMP_pressure;BME280_temperature;BME280_humidity;BME280_pressure;Samples;Min_cycle;Max_cycle;Signal;HPM_P1;HPM_P2
2021/01/27 00:00:33;;;;;;;21.80;11.38;;;;;;;0.85;90.92;100829.38;5016906;28;20058;-84
2021/01/27 00:03:00;;;;;;;23.05;11.50;;;;;;;0.73;91.10;100829.59;5034918;28;20081;-83
2021/01/27 00:05:34;;;;;;;19.70;10.75;;;;;;;0.75;91.18;100841.63;5000726;28;20081;-81
2021/01/27 00:08:02;;;;;;;19.48;11.00;;;;;;;0.82;91.70;100838.97;5009503;28;20093;-83
2021/01/27 00:10:30;;;;;;;21.17;11.15;;;;;;;0.79;91.57;100846.78;5002457;28;20045;-83
2021/01/27 00:12:57;;;;;;;25.98;11.90;;;;;;;0.89;91.23;100845.75;5017575;28;20077;-84
2021/01/27 00:15:30;;;;;;;23.55;11.98;;;;;;;1.07;90.09;100852.38;5005180;28;20034;-82
2021/01/27 00:18:00;;;;;;;25.52;12.30;;;;;;;1.10;89.89;100850.59;5020467;28;20056;-83
2021/01/27 00:20:27;;;;;;;21.67;11.65;;;;;;;1.13;89.73;100852.28;4987429;28;20149;-84
2021/01/27 00:22:57;;;;;;;22.52;11.43;;;;;;;1.04;90.26;100844.63;5007715;28;20122;-82
2021/01/27 00:25:27;;;;;;;21.13;12.25;;;;;;;1.11;90.69;100848.84;5010540;28;20049;-83
2021/01/27 00:27:54;;;;;;;22.42;11.52;;;;;;;1.20;90.39;100852.13;5013687;28;20065;-83
2021/01/27 00:30:24;;;;;;;25.85;12.77;;;;;;;1.25;89.73;100847.72;4994371;28;20450;-83
2021/01/27 00:32:51;;;;;;;24.70;13.10;;;;;;;1.12;90.11;100854.00;4996560;28;20063;-83
2021/01/27 00:35:22;;;;;;;28.88;15.20;;;;;;;1.01;90.24;100850.75;4994303;28;20057;-83
2021/01/27 00:37:49;;;;;;;31.45;16.13;;;;;;;1.15;90.52;100850.50;5010498;28;20053;-84
2021/01/27 00:40:16;;;;;;;27.52;14.95;;;;;;;1.04;90.47;100849.81;5027087;28;20046;-84
2021/01/27 00:42:44;;;;;;;26.20;15.23;;;;;;;1.09;90.33;100848.88;5000609;28;20044;-81
2021/01/27 00:45:11;;;;;;;24.67;14.68;;;;;;;1.14;90.94;100848.81;5028777;28;20058;-85
2021/01/27 00:47:38;;;;;;;29.65;15.82;;;;;;;0.88;91.15;100847.47;5033919;28;20068;-83
2021/01/27 00:50:06;;;;;;;31.98;17.83;;;;;;;0.95;91.26;100850.84;5020947;28;20076;-85
2021/01/27 00:52:33;;;;;;;31.20;17.20;;;;;;;0.96;90.89;100847.38;5021708;28;20056;-84
2021/01/27 00:55:00;;;;;;;33.30;17.88;;;;;;;0.98;90.90;100848.19;5018779;28;20056;-84
2021/01/27 00:57:27;;;;;;;34.95;18.65;;;;;;;0.76;91.87;100851.09;5017606;28;20040;-84
2021/01/27 00:59:54;;;;;;;36.97;18.90;;;;;;;0.84;92.19;100851.00;5027716;28;20053;-85
2021/01/27 01:02:21;;;;;;;36.00;19.48;;;;;;;0.91;91.54;100846.59;5000046;28;20084;-82
2021/01/27 01:04:48;;;;;;;33.67;17.77;;;;;;;1.02;91.33;100852.44;5009717;28;20108;-82
2021/01/27 01:07:15;;;;;;;39.00;19.58;;;;;;;1.00;90.75;100844.69;4990120;28;20052;-85
2021/01/27 01:09:42;;;;;;;37.30;18.65;;;;;;;1.13;90.47;100849.69;4998724;28;20065;-83
2021/01/27 01:12:09;;;;;;;29.85;17.85;;;;;;;1.12;90.16;100850.56;4997452;28;20052;-83
2021/01/27 01:14:36;;;;;;;32.92;18.02;;;;;;;1.12;89.32;100853.13;5011913;28;20055;-84
2021/01/27 01:17:03;;;;;;;35.45;19.10;;;;;;;1.03;90.16;100854.16;4993665;28;20050;-83
2021/01/27 01:19:30;;;;;;;34.88;19.40;;;;;;;1.10;90.28;100849.72;5005723;28;21349;-85
2021/01/27 01:21:57;;;;;;;45.38;20.30;;;;;;;1.07;90.44;100850.63;5018924;28;20042;-83
2021/01/27 01:24:25;;;;;;;30.23;17.58;;;;;;;1.12;89.74;100848.81;4991091;28;20053;-84
2021/01/27 01:26:52;;;;;;;38.50;18.80;;;;;;;1.12;89.96;100855.75;5020307;28;20058;-82
2021/01/27 01:29:19;;;;;;;34.75;18.80;;;;;;;1.08;89.57;100854.97;4998985;28;20041;-84
2021/01/27 01:31:47;;;;;;;30.80;17.17;;;;;;;1.02;89.78;100845.53;5018804;28;20037;-83
2021/01/27 01:34:14;;;;;;;33.22;17.27;;;;;;;1.02;90.14;100840.34;5030918;28;20080;-84
2021/01/27 01:36:41;;;;;;;29.95;16.08;;;;;;;1.09;89.77;100853.22;5009765;28;20563;-82
2021/01/27 01:39:08;;;;;;;28.65;15.45;;;;;;;0.88;90.17;100850.06;4984760;28;20108;-84
2021/01/27 01:41:35;;;;;;;29.98;16.27;;;;;;;0.90;90.60;100847.44;4986793;28;20144;-84
2021/01/27 01:44:02;;;;;;;38.65;18.60;;;;;;;0.92;90.83;100841.38;4972127;28;20090;-84
2021/01/27 01:46:30;;;;;;;30.80;17.15;;;;;;;0.97;90.67;100833.53;5005711;28;20430;-82
2021/01/27 01:49:04;;;;;;;32.92;17.85;;;;;;;1.05;89.78;100830.81;5022644;28;20156;-83
2021/01/27 01:51:35;;;;;;;30.33;16.52;;;;;;;1.03;89.89;100828.22;4986382;28;20515;-85
2021/01/27 01:54:23;;;;;;;34.83;17.30;;;;;;;0.92;90.41;100831.00;5000441;28;20169;-82
2021/01/27 01:56:54;;;;;;;30.10;15.85;;;;;;;1.01;90.02;100830.84;4976351;28;20068;-82
2021/01/27 01:59:21;;;;;;;31.10;15.70;;;;;;;0.89;89.86;100831.03;4995983;28;20105;-80
2021/01/27 02:01:54;;;;;;;30.65;15.48;;;;;;;0.87;90.42;100835.41;5005484;28;20055;-81
2021/01/27 02:04:23;;;;;;;34.88;16.98;;;;;;;0.67;90.63;100829.66;4980532;28;20053;-80
2021/01/27 02:06:52;;;;;;;33.63;15.95;;;;;;;0.60;91.46;100828.06;4993292;28;20069;-81
2021/01/27 02:09:19;;;;;;;30.73;15.02;;;;;;;0.54;91.48;100828.13;4996259;28;20105;-79
2021/01/27 02:11:58;;;;;;;28.40;16.40;;;;;;;0.55;92.08;100822.09;5029169;28;20064;-79
2021/01/27 02:14:48;;;;;;;28.58;14.95;;;;;;;0.69;91.52;100822.72;4996951;28;20097;-82
2021/01/27 02:17:34;;;;;;;28.20;15.63;;;;;;;0.90;90.70;100825.00;4980000;28;20415;-80
2021/01/27 02:20:23;;;;;;;28.83;14.45;;;;;;;0.86;90.42;100823.34;4999794;28;20836;-82
2021/01/27 02:23:07;;;;;;;24.90;14.27;;;;;;;0.50;91.37;100829.94;4992473;28;20178;-81
2021/01/27 02:25:52;;;;;;;29.15;14.70;;;;;;;0.58;91.74;100830.66;5014435;28;20337;-81
2021/01/27 02:28:34;;;;;;;26.58;13.80;;;;;;;0.69;91.57;100833.09;4998515;28;20148;-79
2021/01/27 02:31:18;;;;;;;26.77;15.02;;;;;;;0.70;91.22;100830.47;5018976;28;20118;-81
2021/01/27 02:34:13;;;;;;;27.30;14.00;;;;;;;0.59;90.95;100829.78;4991332;28;20091;-82
2021/01/27 02:36:43;;;;;;;28.75;13.70;;;;;;;0.48;91.42;100824.75;4979712;28;20587;-82
2021/01/27 02:39:14;;;;;;;26.95;13.35;;;;;;;0.42;90.99;100831.75;5026057;28;20396;-80
2021/01/27 02:42:12;;;;;;;27.20;13.13;;;;;;;0.59;91.71;100834.13;4993626;28;20064;-81
2021/01/27 02:45:12;;;;;;;26.98;12.85;;;;;;;0.62;90.60;100828.88;4985338;28;20050;-81
2021/01/27 02:47:50;;;;;;;24.95;12.10;;;;;;;0.64;90.95;100829.72;5020764;28;20050;-80
2021/01/27 02:50:25;;;;;;;26.65;13.40;;;;;;;0.64;90.86;100828.00;4994807;28;20119;-81
2021/01/27 02:53:01;;;;;;;23.40;11.98;;;;;;;0.47;90.73;100833.41;4988979;28;20172;-79
2021/01/27 02:55:35;;;;;;;21.92;12.02;;;;;;;0.41;91.25;100833.50;4985173;28;20081;-80
2021/01/27 02:58:15;;;;;;;35.13;14.05;;;;;;;0.42;91.63;100834.34;4978583;28;20089;-80
2021/01/27 03:00:45;;;;;;;29.88;14.25;;;;;;;0.27;91.66;100829.38;5004400;28;20069;-82
2021/01/27 03:03:17;;;;;;;30.13;13.52;;;;;;;-0.02;93.00;100822.84;4997048;28;21349;-80
2021/01/27 03:05:52;;;;;;;29.67;12.98;;;;;;;-0.13;93.70;100828.16;4983022;28;20072;-81
2021/01/27 03:08:25;;;;;;;31.08;14.68;;;;;;;-0.10;93.72;100827.25;5002870;28;20113;-79
2021/01/27 03:11:15;;;;;;;33.33;15.40;;;;;;;-0.11;94.13;100828.13;5007048;28;20760;-81
2021/01/27 03:13:44;;;;;;;29.92;15.80;;;;;;;-0.34;94.50;100830.97;5002991;28;20065;-81
2021/01/27 03:16:27;;;;;;;30.85;15.20;;;;;;;-0.32;94.42;100839.56;5028532;28;20120;-80
2021/01/27 03:19:18;;;;;;;27.92;14.18;;;;;;;-0.31;94.75;100830.97;5016003;28;20137;-82
2021/01/27 03:21:58;;;;;;;31.40;15.38;;;;;;;-0.32;95.00;100832.66;5020028;28;20080;-81
2021/01/27 03:24:26;;;;;;;26.75;14.60;;;;;;;-0.36;95.05;100833.59;4992971;28;20788;-79
2021/01/27 03:27:07;;;;;;;32.38;15.57;;;;;;;-0.43;95.71;100834.53;5007973;28;20053;-80
2021/01/27 03:29:43;;;;;;;31.10;15.75;;;;;;;-0.50;94.92;100838.03;5017745;28;20131;-81
2021/01/27 03:32:13;;;;;;;;;;;;;;;-0.56;95.26;100836.38;4991158;28;20416;-81
2021/01/27 03:34:43;;;;;;;34.20;14.20;;;;;;;-0.69;95.80;100836.50;5015307;28;19932;-80
2021/01/27 03:37:14;;;;;;;33.95;16.10;;;;;;;-0.70;96.05;100832.22;5027927;28;20046;-80
2021/01/27 03:39:45;;;;;;;38.30;17.25;;;;;;;-0.78;96.24;100840.03;4983361;28;20050;-79
2021/01/27 03:42:21;;;;;;;30.25;16.05;;;;;;;-0.77;96.76;100836.56;4999427;28;20136;-80
2021/01/27 03:44:55;;;;;;;37.42;16.60;;;;;;;-0.90;97.06;100835.84;4989814;28;20057;-80
2021/01/27 03:47:27;;;;;;;36.03;16.73;;;;;;;-0.94;96.90;100843.63;5008174;28;20138;-79
2021/01/27 03:50:02;;;;;;;35.50;18.02;;;;;;;-0.90;97.06;100847.88;5009121;28;20022;-81
2021/01/27 03:52:36;;;;;;;38.83;17.77;;;;;;;-0.82;96.98;100840.91;5009224;28;20038;-81
2021/01/27 03:55:13;;;;;;;37.17;17.73;;;;;;;-0.81;97.07;100850.38;5035823;28;20071;-80
2021/01/27 03:57:48;;;;;;;42.28;18.58;;;;;;;-0.87;97.11;100832.34;5019353;28;20379;-81
2021/01/27 04:00:15;;;;;;;40.42;19.05;;;;;;;-0.96;97.71;100845.34;5004337;28;20038;-82
2021/01/27 04:02:42;;;;;;;39.80;18.55;;;;;;;-0.90;97.98;100838.44;5022302;28;20181;-80
2021/01/27 04:05:10;;;;;;;39.85;19.50;;;;;;;-0.89;98.30;100842.72;4990106;28;20056;-81
2021/01/27 04:07:37;;;;;;;37.22;18.92;;;;;;;-0.90;98.35;100838.44;5007884;28;20119;-81
2021/01/27 04:10:05;;;;;;;37.25;17.90;;;;;;;-0.77;97.81;100846.91;5003699;28;20046;-81
2021/01/27 04:12:32;;;;;;;48.40;19.92;;;;;;;-0.84;97.79;100845.25;5018108;28;20065;-83
2021/01/27 04:14:59;;;;;;;41.88;19.98;;;;;;;-0.60;97.41;100841.59;5000230;28;20038;-81
2021/01/27 04:17:27;;;;;;;40.03;18.63;;;;;;;-0.54;97.04;100847.56;4984283;28;20144;-81
2021/01/27 04:19:56;;;;;;;35.45;19.35;;;;;;;-0.42;96.29;100840.53;4998744;28;20070;-80
2021/01/27 04:22:23;;;;;;;38.15;19.42;;;;;;;-0.46;96.43;100844.03;5023182;28;20049;-80
2021/01/27 04:24:50;;;;;;;38.33;19.92;;;;;;;-0.33;96.71;100837.84;5000201;28;20053;-80
2021/01/27 04:27:17;;;;;;;42.90;19.70;;;;;;;-0.22;95.40;100838.63;4984670;28;20141;-81
2021/01/27 04:29:45;;;;;;;38.55;19.58;;;;;;;-0.21;95.41;100837.72;4997453;28;20041;-80
2021/01/27 04:32:12;;;;;;;36.35;18.10;;;;;;;-0.14;95.15;100831.59;5013138;28;20149;-80
2021/01/27 04:34:39;;;;;;;40.22;18.45;;;;;;;0.02;95.05;100831.44;5005897;28;20057;-81
2021/01/27 04:37:06;;;;;;;39.60;19.00;;;;;;;-0.05;94.72;100839.25;5005804;28;20068;-80
2021/01/27 04:39:33;;;;;;;36.80;20.25;;;;;;;0.19;94.04;100832.06;5017032;28;20037;-81
2021/01/27 04:42:01;;;;;;;34.90;17.13;;;;;;;0.31;93.68;100831.88;4999628;28;20503;-79
2021/01/27 04:44:28;;;;;;;36.80;18.02;;;;;;;0.31;92.69;100831.88;4995371;28;20045;-80
2021/01/27 04:47:31;;;;;;;36.33;19.48;;;;;;;0.18;93.39;100830.34;4995209;28;20099;-81
2021/01/27 04:50:04;;;;;;;39.83;19.20;;;;;;;0.10;94.14;100824.44;5007966;28;20075;-83
2021/01/27 04:53:09;;;;;;;42.15;20.02;;;;;;;0.34;94.05;100820.66;5000007;28;20088;-80
2021/01/27 04:55:57;;;;;;;45.50;21.33;;;;;;;0.19;94.00;100825.16;5020777;28;20053;-80
2021/01/27 04:58:58;;;;;;;39.83;20.05;;;;;;;0.28;94.10;100815.56;5013763;28;20046;-81
2021/01/27 05:01:42;;;;;;;44.08;22.08;;;;;;;0.23;93.65;100811.31;4965064;28;20141;-82
2021/01/27 05:04:18;;;;;;;44.95;23.17;;;;;;;0.30;93.96;100816.38;5017345;28;20066;-80
2021/01/27 05:06:59;;;;;;;49.03;23.20;;;;;;;0.27;94.16;100825.06;4973479;28;20651;-80
2021/01/27 05:09:46;;;;;;;43.97;22.15;;;;;;;0.04;94.64;100821.91;5006954;28;20041;-77
2021/01/27 05:12:15;;;;;;;49.72;23.65;;;;;;;0.23;94.54;100820.81;5010055;28;20068;-78
2021/01/27 05:14:48;;;;;;;48.33;23.60;;;;;;;0.26;94.33;100818.16;4997009;28;20045;-80
2021/01/27 05:17:18;;;;;;;61.95;29.52;;;;;;;0.04;95.21;100821.91;4998617;28;20054;-80
2021/01/27 05:19:51;;;;;;;53.33;27.33;;;;;;;0.13;95.18;100821.78;4990500;28;20065;-83
2021/01/27 05:22:19;;;;;;;54.88;28.08;;;;;;;0.12;94.86;100820.06;4993825;28;20049;-81
2021/01/27 05:24:47;;;;;;;60.92;30.92;;;;;;;-0.10;96.14;100820.34;4995022;28;20046;-79
2021/01/27 05:27:28;;;;;;;60.33;29.30;;;;;;;-0.03;96.69;100816.81;5003265;28;20107;-80
2021/01/27 05:30:01;;;;;;;61.78;28.98;;;;;;;0.13;96.05;100811.44;4983507;28;20598;-81
2021/01/27 05:32:49;;;;;;;64.78;30.17;;;;;;;0.07;96.47;100822.72;5016497;28;20085;-81
2021/01/27 05:35:26;;;;;;;68.88;33.17;;;;;;;0.13;96.46;100806.25;5025741;23;20083;-79
2021/01/27 05:37:54;;;;;;;63.25;31.35;;;;;;;0.32;95.65;100810.31;5022145;28;20415;-79
2021/01/27 05:40:36;;;;;;;65.20;30.77;;;;;;;0.29;95.63;100809.50;4989135;28;20041;-79
2021/01/27 05:43:19;;;;;;;74.70;34.95;;;;;;;-0.03;97.05;100801.28;5009708;28;20076;-80
2021/01/27 05:45:48;;;;;;;76.75;34.95;;;;;;;-0.13;97.54;100807.47;5011363;28;20069;-80
2021/01/27 05:48:15;;;;;;;74.75;34.65;;;;;;;0.08;97.13;100808.91;4989654;28;20092;-80
2021/01/27 05:50:43;;;;;;;70.53;33.63;;;;;;;0.20;96.66;100802.72;5027158;28;20045;-78
2021/01/27 05:53:22;;;;;;;65.78;30.98;;;;;;;0.29;96.51;100801.72;4988376;28;20464;-80
2021/01/27 05:56:15;;;;;;;67.70;30.60;;;;;;;0.22;96.22;100806.97;5010027;28;20059;-79
2021/01/27 05:58:56;;;;;;;67.35;30.42;;;;;;;0.04;97.06;100807.22;5009920;28;20326;-80
2021/01/27 06:01:41;;;;;;;76.93;32.83;;;;;;;0.15;97.36;100809.69;4993330;28;20081;-81
2021/01/27 06:04:11;;;;;;;71.35;32.20;;;;;;;0.24;97.62;100804.38;5001709;28;20108;-79
2021/01/27 06:06:50;;;;;;;65.38;29.55;;;;;;;0.45;96.79;100806.69;5016346;28;20055;-78
2021/01/27 06:09:35;;;;;;;66.30;32.85;;;;;;;0.54;95.88;100803.09;4982138;28;20847;-81
2021/01/27 06:12:32;;;;;;;66.70;31.80;;;;;;;0.50;96.19;100791.94;5016568;28;20397;-78
2021/01/27 06:15:04;;;;;;;72.82;32.17;;;;;;;0.18;97.54;100800.16;4966163;28;20057;-78
2021/01/27 06:17:52;;;;;;;64.20;30.40;;;;;;;0.40;96.81;100802.44;5024446;28;20132;-77
2021/01/27 06:20:34;;;;;;;61.38;30.90;;;;;;;0.57;96.22;100795.25;4982613;28;20092;-78
2021/01/27 06:23:22;;;;;;;60.30;29.58;;;;;;;0.46;96.21;100799.78;4999682;28;20077;-77
2021/01/27 06:26:19;;;;;;;60.65;29.55;;;;;;;0.37;97.24;100800.75;5018835;28;20038;-79
2021/01/27 06:29:12;;;;;;;61.28;29.83;;;;;;;0.72;95.85;100797.63;5014058;28;20033;-77
2021/01/27 06:32:04;;;;;;;57.90;28.08;;;;;;;0.68;95.50;100797.72;5019966;28;20064;-78
2021/01/27 06:34:46;;;;;;;65.78;32.55;;;;;;;0.65;95.50;100790.84;5023544;28;20060;-78
2021/01/27 06:37:26;;;;;;;58.72;27.00;;;;;;;0.75;95.15;100802.75;5003776;28;20048;-77
2021/01/27 06:39:59;;;;;;;59.03;29.85;;;;;;;0.60;95.15;100796.97;5003240;28;20463;-77
2021/01/27 06:42:54;;;;;;;61.55;28.95;;;;;;;0.72;95.46;100794.16;4997101;28;20095;-76
2021/01/27 06:45:34;;;;;;;65.45;28.55;;;;;;;0.79;94.56;100785.44;4971142;28;20050;-78
2021/01/27 06:48:12;;;;;;;53.35;26.27;;;;;;;0.83;94.51;100797.47;5006811;28;20045;-78
2021/01/27 06:51:08;;;;;;;54.50;28.25;;;;;;;0.89;93.97;100797.34;5002164;28;20524;-78
2021/01/27 06:53:38;;;;;;;45.25;23.85;;;;;;;0.97;93.77;100797.22;5004683;28;20288;-79
2021/01/27 06:56:23;;;;;;;57.05;26.40;;;;;;;0.97;93.67;100789.44;4991621;28;20359;-78
2021/01/27 06:59:15;;;;;;;47.90;25.25;;;;;;;0.93;93.46;100801.59;4983785;28;20073;-78
2021/01/27 07:02:27;;;;;;;48.70;26.40;;;;;;;1.17;93.25;100799.47;4997024;28;20160;-77
2021/01/27 07:05:23;;;;;;;51.95;24.55;;;;;;;1.19;92.76;100793.38;5005811;28;20033;-77
2021/01/27 07:08:08;;;;;;;46.10;23.80;;;;;;;1.24;92.31;100794.16;5002093;28;20054;-78
2021/01/27 07:10:50;;;;;;;49.50;25.55;;;;;;;1.22;92.86;100795.09;4984294;28;20805;-79
2021/01/27 07:13:41;;;;;;;49.45;26.35;;;;;;;0.94;93.20;100797.28;5021425;28;20575;-76
2021/01/27 07:16:21;;;;;;;56.03;27.25;;;;;;;1.08;93.70;100794.44;5023992;28;20050;-77
2021/01/27 07:19:07;;;;;;;54.88;27.90;;;;;;;1.20;93.29;100799.41;5013801;28;20045;-77
2021/01/27 07:22:01;;;;;;;55.20;25.83;;;;;;;1.13;93.48;100801.28;5027416;28;20050;-77
2021/01/27 07:24:38;;;;;;;51.42;27.30;;;;;;;1.28;93.21;100800.16;5024321;28;20140;-78
2021/01/27 07:27:11;;;;;;;46.80;25.30;;;;;;;1.30;93.01;100798.38;4996200;28;20139;-78
2021/01/27 07:29:48;;;;;;;53.05;25.25;;;;;;;1.34;92.75;100800.03;4996431;28;20049;-76
2021/01/27 07:32:23;;;;;;;52.90;25.95;;;;;;;1.39;92.56;100798.19;4988227;28;20147;-77
2021/01/27 07:35:13;;;;;;;54.47;27.55;;;;;;;1.30;92.58;100792.31;5011375;28;20099;-77
2021/01/27 07:37:58;;;;;;;49.72;25.88;;;;;;;1.50;92.07;100796.28;5030339;28;20061;-79
2021/01/27 07:40:28;;;;;;;51.50;26.27;;;;;;;1.48;92.10;100802.38;4991018;28;20045;-78
2021/01/27 07:42:56;;;;;;;54.20;25.13;;;;;;;1.58;91.79;100795.28;4989501;28;20057;-77
2021/01/27 07:45:27;;;;;;;49.92;24.45;;;;;;;1.47;91.58;100796.31;4989762;28;20144;-77
2021/01/27 07:47:59;;;;;;;51.22;25.13;;;;;;;1.58;91.65;100800.47;5006144;28;20047;-79
2021/01/27 07:50:26;;;;;;;58.95;27.45;;;;;;;1.50;91.80;100793.69;5019655;28;20045;-77
2021/01/27 07:53:25;;;;;;;45.92;26.02;;;;;;;1.54;91.43;100796.22;4991089;28;20049;-78
2021/01/27 07:56:19;;;;;;;47.08;25.35;;;;;;;1.44;91.44;100799.00;5005556;28;20049;-77
2021/01/27 07:59:05;;;;;;;48.10;25.05;;;;;;;1.49;91.87;100798.91;4982530;28;20121;-78
2021/01/27 08:01:42;;;;;;;48.90;24.70;;;;;;;1.66;91.32;100793.38;5026755;28;21040;-77
2021/01/27 08:04:32;;;;;;;48.05;26.58;;;;;;;1.48;91.58;100798.03;4994239;28;20192;-79
2021/01/27 08:06:59;;;;;;;46.75;25.10;;;;;;;1.68;91.12;100786.44;5019945;28;20048;-77
2021/01/27 08:09:34;;;;;;;46.03;25.17;;;;;;;1.58;90.81;100790.09;4988350;28;20064;-78
2021/01/27 08:12:26;;;;;;;46.08;25.05;;;;;;;1.71;90.72;100792.41;4981499;28;20742;-78
2021/01/27 08:15:25;;;;;;;43.20;23.73;;;;;;;1.63;90.30;100790.84;4989252;28;20074;-79
2021/01/27 08:17:54;;;;;;;42.80;23.80;;;;;;;1.74;90.22;100787.16;5005282;28;20053;-77
2021/01/27 08:20:31;;;;;;;50.22;25.00;;;;;;;1.81;89.52;100787.03;5009710;28;20042;-77
2021/01/27 08:23:06;;;;;;;48.80;24.48;;;;;;;1.78;89.69;100787.94;4990988;28;20140;-78
2021/01/27 08:25:59;;;;;;;43.38;23.73;;;;;;;1.78;89.80;100787.94;4992244;28;20053;-78
2021/01/27 08:28:38;;;;;;;41.50;24.30;;;;;;;1.84;89.36;100786.97;5016257;28;20055;-78
2021/01/27 08:31:18;;;;;;;45.72;24.23;;;;;;;1.91;89.51;100781.63;5024692;28;20047;-77
2021/01/27 08:33:54;;;;;;;45.03;23.42;;;;;;;1.98;88.56;100780.63;5013550;28;20121;-79
2021/01/27 08:36:30;;;;;;;42.17;24.67;;;;;;;1.94;88.99;100784.16;5009682;28;20089;-77
2021/01/27 08:39:10;;;;;;;42.95;23.88;;;;;;;1.88;88.99;100778.22;5015160;28;20060;-78
2021/01/27 08:41:52;;;;;;;38.65;23.20;;;;;;;1.86;89.16;100774.81;4996695;28;20061;-78
2021/01/27 08:44:19;;;;;;;41.80;24.42;;;;;;;1.68;90.06;100774.31;5007048;28;20049;-78
2021/01/27 08:47:02;;;;;;;47.92;24.90;;;;;;;2.01;88.75;100774.50;5023133;28;20108;-79
2021/01/27 08:49:35;;;;;;;48.47;24.17;;;;;;;2.12;88.36;100774.28;4996669;28;20045;-77
2021/01/27 08:52:09;;;;;;;42.70;24.15;;;;;;;2.06;88.20;100782.19;5010586;28;20053;-79
2021/01/27 08:54:38;;;;;;;47.30;25.25;;;;;;;1.99;88.68;100771.94;4993033;28;20068;-78
2021/01/27 08:57:24;;;;;;;48.95;24.80;;;;;;;2.02;88.03;100773.59;5006518;28;20045;-79
2021/01/27 08:59:51;;;;;;;;;;;;;;;1.94;88.28;100773.78;5016841;28;20045;-78
2021/01/27 09:02:46;;;;;;;45.30;23.90;;;;;;;2.08;87.78;100764.84;5002630;28;19921;-78
2021/01/27 09:05:32;;;;;;;42.97;23.45;;;;;;;2.11;87.83;100769.94;5020768;28;20049;-78
2021/01/27 09:08:12;;;;;;;49.35;24.42;;;;;;;2.16;87.46;100770.69;5006314;28;20049;-78
2021/01/27 09:10:42;;;;;;;40.00;24.08;;;;;;;2.23;87.03;100765.34;5016349;28;20084;-78
2021/01/27 09:13:41;;;;;;;41.42;25.23;;;;;;;2.20;87.39;100760.19;5001151;28;20037;-74
2021/01/27 09:16:11;;;;;;;46.78;23.65;;;;;;;2.14;87.01;100759.50;5009665;28;20065;-78
2021/01/27 09:18:40;;;;;;;46.28;24.35;;;;;;;2.07;86.96;100758.75;5018254;28;20058;-79
2021/01/27 09:21:14;;;;;;;40.88;24.25;;;;;;;2.09;87.57;100757.00;5005148;28;20042;-78
2021/01/27 09:23:43;;;;;;;44.25;23.80;;;;;;;2.02;87.43;100756.28;4991648;28;20057;-78
2021/01/27 09:26:20;;;;;;;40.22;24.92;;;;;;;2.08;87.37;100759.66;4994467;28;20076;-79
2021/01/27 09:28:48;;;;;;;42.97;24.48;;;;;;;2.20;87.27;100757.59;4997020;28;20125;-78
2021/01/27 09:31:21;;;;;;;44.67;24.67;;;;;;;2.18;87.06;100761.16;5001910;28;20046;-78
2021/01/27 09:33:48;;;;;;;43.20;24.52;;;;;;;1.97;87.60;100759.84;4998835;28;20049;-78
2021/01/27 09:36:26;;;;;;;43.75;24.75;;;;;;;2.13;87.81;100760.41;5022600;28;20053;-78
2021/01/27 09:38:57;;;;;;;41.30;22.95;;;;;;;2.32;86.71;100763.44;5011790;28;20369;-76
2021/01/27 09:41:30;;;;;;;41.67;23.75;;;;;;;2.40;85.83;100764.97;5010637;28;20069;-77
2021/01/27 09:43:58;;;;;;;44.42;26.65;;;;;;;2.42;86.08;100760.56;4994876;28;20049;-76
2021/01/27 09:46:29;;;;;;;44.67;25.90;;;;;;;2.40;86.36;100764.13;4985864;28;20049;-77
2021/01/27 09:49:20;;;;;;;42.95;23.85;;;;;;;2.41;86.55;100764.06;4985058;28;20393;-78
2021/01/27 09:51:52;;;;;;;46.53;25.38;;;;;;;2.54;86.05;100765.50;4992837;28;20068;-79
2021/01/27 09:54:21;;;;;;;41.55;25.10;;;;;;;2.69;85.20;100761.66;4989829;28;20049;-77
2021/01/27 09:57:00;;;;;;;41.63;24.67;;;;;;;2.73;84.71;100767.66;5000999;28;20057;-77
2021/01/27 09:59:28;;;;;;;41.00;23.23;;;;;;;2.91;84.28;100759.41;4985860;28;20072;-78
2021/01/27 10:01:55;;;;;;;37.92;22.60;;;;;;;3.14;82.44;100756.19;5020160;28;20052;-79
2021/01/27 10:04:32;;;;;;;34.83;21.25;;;;;;;2.99;83.20;100759.22;4994530;28;20139;-79
2021/01/27 10:07:14;;;;;;;39.17;24.25;;;;;;;2.77;84.02;100761.50;4981348;28;20045;-77
2021/01/27 10:09:50;;;;;;;39.90;23.52;;;;;;;3.24;82.44;100757.69;4986330;28;20057;-78
2021/01/27 10:12:28;;;;;;;36.70;23.35;;;;;;;3.57;80.12;100749.84;4985675;28;20071;-79
2021/01/27 10:15:13;;;;;;;35.40;21.67;;;;;;;3.59;79.18;100749.78;4986946;28;20053;-79
2021/01/27 10:17:41;;;;;;;34.95;22.15;;;;;;;3.62;79.88;100734.09;5003765;28;20159;-79
2021/01/27 10:20:24;;;;;;;35.90;22.88;;;;;;;3.23;80.55;100736.91;5000265;28;20882;-77
2021/01/27 10:22:56;;;;;;;37.45;22.67;;;;;;;3.05;81.80;100735.63;5015137;28;20096;-79
2021/01/27 10:25:26;;;;;;;37.90;22.83;;;;;;;3.08;81.07;100737.31;5007630;28;20056;-79
2021/01/27 10:28:06;;;;;;;43.67;23.40;;;;;;;3.04;81.21;100726.97;4982351;28;20478;-79
2021/01/27 10:30:52;;;;;;;39.75;21.92;;;;;;;2.85;82.14;100735.31;4986524;28;20632;-79
2021/01/27 10:33:42;;;;;;;40.90;23.02;;;;;;;2.83;82.13;100730.13;5011711;28;20057;-79
2021/01/27 10:36:24;;;;;;;35.05;19.73;;;;;;;2.84;81.49;100724.06;5017884;28;20053;-79
2021/01/27 10:39:18;;;;;;;37.00;20.42;;;;;;;2.88;81.52;100717.00;5019119;28;20163;-77
2021/01/27 10:41:48;;;;;;;32.38;20.55;;;;;;;2.78;81.64;100726.78;4997587;28;20045;-80
2021/01/27 10:44:22;;;;;;;33.13;20.45;;;;;;;2.89;80.70;100721.34;4999328;28;20202;-79
2021/01/27 10:46:51;;;;;;;35.95;20.55;;;;;;;2.82;80.81;100720.63;5020700;28;20136;-77
2021/01/27 10:49:19;;;;;;;34.13;20.73;;;;;;;2.73;81.43;100713.06;5010527;28;20537;-77
2021/01/27 10:51:46;;;;;;;36.20;21.98;;;;;;;2.78;81.20;100712.03;5006659;28;20551;-78
2021/01/27 10:54:16;;;;;;;38.30;21.05;;;;;;;2.94;81.02;100709.91;4987166;28;20057;-78
2021/01/27 10:56:44;;;;;;;33.13;20.13;;;;;;;2.95;81.07;100714.22;5028293;28;20632;-77
2021/01/27 10:59:11;;;;;;;37.83;20.33;;;;;;;3.12;81.10;100705.97;5009665;28;20120;-78
2021/01/27 11:01:38;;;;;;;35.53;20.48;;;;;;;3.15;81.01;100710.22;5001960;28;20049;-78
2021/01/27 11:04:05;;;;;;;33.60;21.60;;;;;;;3.18;80.40;100711.00;4987007;28;20072;-77
2021/01/27 11:06:33;;;;;;;33.03;21.17;;;;;;;3.15;80.38;100700.69;5019552;28;20046;-80
2021/01/27 11:09:00;;;;;;;35.58;20.40;;;;;;;3.26;79.89;100708.19;4988648;28;20141;-78
2021/01/27 11:11:29;;;;;;;34.42;19.58;;;;;;;3.07;80.33;100700.03;4970301;28;20236;-78
2021/01/27 11:13:57;;;;;;;33.47;21.23;;;;;;;3.16;80.62;100699.78;4996574;28;20595;-80
2021/01/27 11:16:24;;;;;;;35.22;20.73;;;;;;;3.18;79.49;100695.38;4986413;28;20051;-79
2021/01/27 11:18:52;;;;;;;35.75;21.13;;;;;;;3.44;78.87;100699.88;5003966;28;20037;-79
2021/01/27 11:21:19;;;;;;;35.58;19.92;;;;;;;3.92;77.43;100698.50;4993250;28;20172;-77
2021/01/27 11:23:49;;;;;;;34.22;18.70;;;;;;;4.18;76.06;100701.13;4990694;28;20061;-79
2021/01/27 11:26:20;;;;;;;32.13;18.02;;;;;;;4.56;75.51;100692.09;5002570;28;21219;-77
2021/01/27 11:28:51;;;;;;;32.92;19.30;;;;;;;4.79;75.24;100698.28;5002208;28;20053;-79
2021/01/27 11:31:18;;;;;;;28.08;18.42;;;;;;;4.89;73.01;100688.41;5020793;28;20053;-77
2021/01/27 11:33:48;;;;;;;29.35;17.17;;;;;;;5.11;72.82;100683.28;5022873;28;20766;-79
2021/01/27 11:36:23;;;;;;;27.27;16.45;;;;;;;5.28;70.60;100684.38;5009878;28;20068;-80
2021/01/27 11:38:51;;;;;;;28.38;18.55;;;;;;;5.29;69.34;100677.41;5006261;28;20076;-79
2021/01/27 11:41:19;;;;;;;26.00;15.82;;;;;;;5.32;70.03;100672.09;5020329;28;20050;-80
2021/01/27 11:43:46;;;;;;;24.85;15.77;;;;;;;5.28;70.29;100671.34;5016531;28;20069;-80
2021/01/27 11:46:16;;;;;;;25.45;16.88;;;;;;;5.72;68.92;100665.34;5016411;28;20114;-80
2021/01/27 11:48:44;;;;;;;27.50;15.88;;;;;;;5.74;67.49;100666.16;5038810;28;20052;-79
2021/01/27 11:51:13;;;;;;;31.40;15.88;;;;;;;5.71;68.35;100663.66;5017481;28;20054;-80
2021/01/27 11:53:47;;;;;;;26.67;17.33;;;;;;;5.63;68.99;100658.75;4995707;28;20046;-78